createdAt,value
2016-12-21T00:00:06.871Z,74051
2016-12-21T00:00:15.529Z,74048
2016-12-21T00:00:24.187Z,74047
2016-12-21T00:00:32.851Z,74048
2016-12-21T00:00:41.509Z,74050
2016-12-21T00:00:50.165Z,74048
2016-12-21T00:00:58.825Z,74048
2016-12-21T00:01:07.487Z,74049
2016-12-21T00:01:16.146Z,74051
2016-12-21T00:01:24.808Z,74050
2016-12-21T00:01:33.466Z,74049
2016-12-21T00:01:42.132Z,74054
2016-12-21T00:01:50.788Z,74049
2016-12-21T00:01:59.455Z,74053
2016-12-21T00:02:08.115Z,74052
2016-12-21T00:02:16.774Z,74048
2016-12-21T00:02:25.439Z,74047
2016-12-21T00:02:34.099Z,74046
2016-12-21T00:02:42.759Z,74053
2016-12-21T00:02:51.448Z,74051
2016-12-21T00:03:00.109Z,74047
2016-12-21T00:03:08.769Z,74051
2016-12-21T00:03:17.427Z,74050
2016-12-21T00:03:26.088Z,74049
2016-12-21T00:03:34.747Z,74051
2016-12-21T00:03:43.435Z,74052
2016-12-21T00:03:52.093Z,74052
2016-12-21T00:04:00.764Z,74052
2016-12-21T00:04:09.424Z,74053
2016-12-21T00:04:18.083Z,74054
2016-12-21T00:04:26.747Z,74052
2016-12-21T00:04:35.415Z,74053
2016-12-21T00:04:44.076Z,74057
2016-12-21T00:04:52.742Z,74053
2016-12-21T00:05:01.697Z,74053
2016-12-21T00:05:10.363Z,74052
2016-12-21T00:05:19.024Z,74048
2016-12-21T00:05:27.713Z,74052
2016-12-21T00:05:36.373Z,74055
2016-12-21T00:05:45.027Z,74052
2016-12-21T00:05:53.682Z,74053
2016-12-21T00:06:02.337Z,74051
2016-12-21T00:06:10.995Z,74055
2016-12-21T00:06:19.656Z,74053
2016-12-21T00:06:28.325Z,74051
2016-12-21T00:06:36.988Z,74051
2016-12-21T00:06:45.647Z,74056
2016-12-21T00:06:54.304Z,74053
2016-12-21T00:07:02.997Z,74055
2016-12-21T00:07:11.652Z,74054
2016-12-21T00:07:20.310Z,74055
2016-12-21T00:07:29.004Z,74055
2016-12-21T00:07:37.956Z,74056
2016-12-21T00:07:46.617Z,74055
2016-12-21T00:07:55.304Z,74051
2016-12-21T00:08:03.963Z,74054
2016-12-21T00:08:12.622Z,74051
2016-12-21T00:08:21.307Z,74056
2016-12-21T00:08:29.971Z,74053
2016-12-21T00:08:38.625Z,74052
2016-12-21T00:08:47.285Z,74054
2016-12-21T00:08:55.941Z,74054
2016-12-21T00:09:04.628Z,74054
2016-12-21T00:09:13.284Z,74052
2016-12-21T00:09:21.944Z,74050
2016-12-21T00:09:30.614Z,74055
2016-12-21T00:09:39.269Z,74054
2016-12-21T00:09:47.928Z,74052
2016-12-21T00:09:56.586Z,74053
2016-12-21T00:10:05.241Z,74053
2016-12-21T00:10:13.898Z,74055
2016-12-21T00:10:22.556Z,74056
2016-12-21T00:10:31.227Z,74051
2016-12-21T00:10:39.883Z,74052
2016-12-21T00:10:48.568Z,74052
2016-12-21T00:10:57.229Z,74052
2016-12-21T00:11:05.895Z,74053
2016-12-21T00:11:14.554Z,74055
2016-12-21T00:11:23.218Z,74052
2016-12-21T00:11:31.877Z,74052
2016-12-21T00:11:40.532Z,74054
2016-12-21T00:11:49.189Z,74057
2016-12-21T00:11:57.855Z,74054
2016-12-21T00:12:06.514Z,74054
2016-12-21T00:12:15.173Z,74050
2016-12-21T00:12:23.827Z,74049
2016-12-21T00:12:32.495Z,74050
2016-12-21T00:12:41.153Z,74052
2016-12-21T00:12:49.812Z,74054
2016-12-21T00:12:58.468Z,74054
2016-12-21T00:13:07.132Z,74053
2016-12-21T00:13:15.801Z,74050
2016-12-21T00:13:24.453Z,74053
2016-12-21T00:13:33.111Z,74051
2016-12-21T00:13:41.764Z,74050
2016-12-21T00:13:50.420Z,74055
2016-12-21T00:13:59.077Z,74054
2016-12-21T00:14:07.735Z,74054
2016-12-21T00:14:16.398Z,74051
2016-12-21T00:14:25.066Z,74051
2016-12-21T00:14:34.015Z,74051
2016-12-21T00:14:42.675Z,74054
2016-12-21T00:14:51.331Z,74051
2016-12-21T00:14:59.991Z,74052
2016-12-21T00:15:08.649Z,74053
2016-12-21T00:15:17.307Z,74056
2016-12-21T00:15:25.966Z,74050
2016-12-21T00:15:34.627Z,74053
2016-12-21T00:15:43.293Z,74052
2016-12-21T00:15:51.949Z,74053
2016-12-21T00:16:00.609Z,74054
2016-12-21T00:16:09.269Z,74052
2016-12-21T00:16:17.926Z,74053
2016-12-21T00:16:26.584Z,74048
2016-12-21T00:16:35.242Z,74053
2016-12-21T00:16:43.895Z,74052
2016-12-21T00:16:52.556Z,74051
2016-12-21T00:17:01.214Z,74052
2016-12-21T00:17:09.876Z,74052
2016-12-21T00:17:18.533Z,74054
2016-12-21T00:17:27.186Z,74051
2016-12-21T00:17:35.842Z,74054
2016-12-21T00:17:44.504Z,74053
2016-12-21T00:17:53.163Z,74054
2016-12-21T00:18:01.826Z,74054
2016-12-21T00:18:10.488Z,74053
2016-12-21T00:18:19.151Z,74053
2016-12-21T00:18:27.809Z,74056
2016-12-21T00:18:36.473Z,74055
2016-12-21T00:18:45.128Z,74058
2016-12-21T00:18:53.781Z,74060
2016-12-21T00:19:02.458Z,74053
2016-12-21T00:19:11.124Z,74055
2016-12-21T00:19:19.789Z,74055
2016-12-21T00:19:28.445Z,74057
2016-12-21T00:19:37.106Z,74054
2016-12-21T00:19:45.766Z,74057
2016-12-21T00:19:54.427Z,74057
2016-12-21T00:20:03.086Z,74056
2016-12-21T00:20:11.746Z,74055
2016-12-21T00:20:20.405Z,74058
2016-12-21T00:20:29.070Z,74056
2016-12-21T00:20:37.736Z,74058
2016-12-21T00:20:46.398Z,74059
2016-12-21T00:20:55.064Z,74060
2016-12-21T00:21:03.728Z,74056
2016-12-21T00:21:12.385Z,74061
2016-12-21T00:21:21.053Z,74060
2016-12-21T00:21:29.711Z,74058
2016-12-21T00:21:38.367Z,74057
2016-12-21T00:21:47.030Z,74061
2016-12-21T00:21:55.683Z,74054
2016-12-21T00:22:04.352Z,74052
2016-12-21T00:22:13.012Z,74057
2016-12-21T00:22:21.697Z,74060
2016-12-21T00:22:30.354Z,74057
2016-12-21T00:22:39.010Z,74060
2016-12-21T00:22:47.670Z,74058
2016-12-21T00:22:56.331Z,74059
2016-12-21T00:23:04.988Z,74057
2016-12-21T00:23:13.935Z,74059
2016-12-21T00:23:22.631Z,74063
2016-12-21T00:23:31.286Z,74062
2016-12-21T00:23:39.943Z,74059
2016-12-21T00:23:48.601Z,74060
2016-12-21T00:23:57.261Z,74059
2016-12-21T00:24:05.923Z,74059
2016-12-21T00:24:14.586Z,74062
2016-12-21T00:24:23.245Z,74060
2016-12-21T00:24:31.902Z,74060
2016-12-21T00:24:40.559Z,74060
2016-12-21T00:24:49.217Z,74060
2016-12-21T00:24:57.887Z,74058
2016-12-21T00:25:06.548Z,74058
2016-12-21T00:25:15.207Z,74063
2016-12-21T00:25:24.161Z,74058
2016-12-21T00:25:32.819Z,74060
2016-12-21T00:25:41.506Z,74061
2016-12-21T00:25:50.163Z,74059
2016-12-21T00:25:58.821Z,74063
2016-12-21T00:26:07.483Z,74061
2016-12-21T00:26:16.140Z,74067
2016-12-21T00:26:24.798Z,74058
2016-12-21T00:26:33.491Z,74064
2016-12-21T00:26:42.156Z,74059
2016-12-21T00:26:50.815Z,74064
2016-12-21T00:26:59.480Z,74062
2016-12-21T00:27:08.163Z,74060
2016-12-21T00:27:16.815Z,74058
2016-12-21T00:27:25.475Z,74064
2016-12-21T00:27:34.160Z,74061
2016-12-21T00:27:42.819Z,74060
2016-12-21T00:27:51.477Z,74058
2016-12-21T00:28:00.141Z,74059
2016-12-21T00:28:08.799Z,74060
2016-12-21T00:28:17.461Z,74060
2016-12-21T00:28:26.120Z,74061
2016-12-21T00:28:34.776Z,74062
2016-12-21T00:28:43.437Z,74060
2016-12-21T00:28:52.100Z,74059
2016-12-21T00:29:00.785Z,74062
2016-12-21T00:29:09.439Z,74063
2016-12-21T00:29:18.100Z,74061
2016-12-21T00:29:26.761Z,74060
2016-12-21T00:29:35.422Z,74062
2016-12-21T00:29:44.079Z,74062
2016-12-21T00:29:52.733Z,74059
2016-12-21T00:30:01.421Z,74058
2016-12-21T00:30:10.081Z,74061
2016-12-21T00:30:18.741Z,74064
2016-12-21T00:30:27.425Z,74060
2016-12-21T00:30:36.091Z,74060
2016-12-21T00:30:44.757Z,74064
2016-12-21T00:30:53.419Z,74063
2016-12-21T00:31:02.074Z,74061
2016-12-21T00:31:10.734Z,74055
2016-12-21T00:31:19.393Z,74060
2016-12-21T00:31:28.057Z,74060
2016-12-21T00:31:36.722Z,74061
2016-12-21T00:31:45.381Z,74061
2016-12-21T00:31:54.038Z,74062
2016-12-21T00:32:02.705Z,74063
2016-12-21T00:32:11.368Z,74064
2016-12-21T00:32:20.031Z,74063
2016-12-21T00:32:28.684Z,74064
2016-12-21T00:32:37.345Z,74063
2016-12-21T00:32:46.013Z,74065
2016-12-21T00:32:54.670Z,74065
2016-12-21T00:33:03.330Z,74061
2016-12-21T00:33:11.988Z,74057
2016-12-21T00:33:20.646Z,74063
2016-12-21T00:33:29.347Z,74065
2016-12-21T00:33:38.009Z,74060
2016-12-21T00:33:46.668Z,74065
2016-12-21T00:33:55.326Z,74067
2016-12-21T00:34:04.279Z,74068
2016-12-21T00:34:12.936Z,74065
2016-12-21T00:34:21.594Z,74070
2016-12-21T00:34:30.248Z,74064
2016-12-21T00:34:38.941Z,74061
2016-12-21T00:34:47.598Z,74068
2016-12-21T00:34:56.260Z,74065
2016-12-21T00:35:04.920Z,74066
2016-12-21T00:35:13.583Z,74068
2016-12-21T00:35:22.240Z,74063
2016-12-21T00:35:30.903Z,74065
2016-12-21T00:35:39.561Z,74067
2016-12-21T00:35:48.232Z,74066
2016-12-21T00:35:56.895Z,74066
2016-12-21T00:36:05.549Z,74065
2016-12-21T00:36:14.207Z,74066
2016-12-21T00:36:22.866Z,74064
2016-12-21T00:36:31.556Z,74059
2016-12-21T00:36:40.209Z,74061
2016-12-21T00:36:48.869Z,74068
2016-12-21T00:36:57.534Z,74066
2016-12-21T00:37:06.193Z,74067
2016-12-21T00:37:14.889Z,74066
2016-12-21T00:37:23.546Z,74064
2016-12-21T00:37:32.204Z,74067
2016-12-21T00:37:40.863Z,74068
2016-12-21T00:37:49.516Z,74065
2016-12-21T00:37:58.210Z,74069
2016-12-21T00:38:06.868Z,74067
2016-12-21T00:38:15.524Z,74066
2016-12-21T00:38:24.216Z,74062
2016-12-21T00:38:32.874Z,74068
2016-12-21T00:38:41.533Z,74065
2016-12-21T00:38:50.191Z,74067
2016-12-21T00:38:58.854Z,74065
2016-12-21T00:39:07.520Z,74065
2016-12-21T00:39:16.173Z,74072
2016-12-21T00:39:24.833Z,74068
2016-12-21T00:39:33.492Z,74068
2016-12-21T00:39:42.153Z,74065
2016-12-21T00:39:50.813Z,74071
2016-12-21T00:39:59.479Z,74069
2016-12-21T00:40:08.466Z,74065
2016-12-21T00:40:17.125Z,74069
2016-12-21T00:40:25.782Z,74067
2016-12-21T00:40:34.441Z,74069
2016-12-21T00:40:43.108Z,74065
2016-12-21T00:40:51.765Z,74068
2016-12-21T00:41:00.417Z,74064
2016-12-21T00:41:09.107Z,74065
2016-12-21T00:41:17.775Z,74068
2016-12-21T00:41:26.434Z,74065
2016-12-21T00:41:35.096Z,74067
2016-12-21T00:41:43.755Z,74067
2016-12-21T00:41:52.424Z,74069
2016-12-21T00:42:01.081Z,74066
2016-12-21T00:42:09.741Z,74067
2016-12-21T00:42:18.398Z,74065
2016-12-21T00:42:27.056Z,74061
2016-12-21T00:42:35.709Z,74060
2016-12-21T00:42:44.366Z,74065
2016-12-21T00:42:53.020Z,74064
2016-12-21T00:43:01.672Z,74063
2016-12-21T00:43:10.337Z,74064
2016-12-21T00:43:18.999Z,74066
2016-12-21T00:43:27.662Z,74063
2016-12-21T00:43:36.317Z,74064
2016-12-21T00:43:44.984Z,74063
2016-12-21T00:43:53.638Z,74066
2016-12-21T00:44:02.298Z,74067
2016-12-21T00:44:10.961Z,74065
2016-12-21T00:44:19.623Z,74063
2016-12-21T00:44:28.284Z,74067
2016-12-21T00:44:36.943Z,74066
2016-12-21T00:44:45.599Z,74063
2016-12-21T00:44:54.255Z,74062
2016-12-21T00:45:02.914Z,74064
2016-12-21T00:45:11.570Z,74063
2016-12-21T00:45:20.229Z,74066
2016-12-21T00:45:28.889Z,74067
2016-12-21T00:45:37.548Z,74067
2016-12-21T00:45:46.205Z,74071
2016-12-21T00:45:54.889Z,74067
2016-12-21T00:46:03.548Z,74071
2016-12-21T00:46:12.203Z,74070
2016-12-21T00:46:20.861Z,74068
2016-12-21T00:46:29.519Z,74068
2016-12-21T00:46:38.179Z,74069
2016-12-21T00:46:46.862Z,74068
2016-12-21T00:46:55.518Z,74069
2016-12-21T00:47:04.171Z,74068
2016-12-21T00:47:12.827Z,74068
2016-12-21T00:47:21.479Z,74065
2016-12-21T00:47:30.146Z,74070
2016-12-21T00:47:38.800Z,74066
2016-12-21T00:47:47.488Z,74064
2016-12-21T00:47:56.146Z,74065
2016-12-21T00:48:04.805Z,74065
2016-12-21T00:48:13.464Z,74065
2016-12-21T00:48:22.119Z,74065
2016-12-21T00:48:30.782Z,74073
2016-12-21T00:48:39.435Z,74068
2016-12-21T00:48:48.097Z,74068
2016-12-21T00:48:56.763Z,74072
2016-12-21T00:49:05.428Z,74072
2016-12-21T00:49:14.091Z,74072
2016-12-21T00:49:22.754Z,74068
2016-12-21T00:49:31.411Z,74067
2016-12-21T00:49:40.074Z,74073
2016-12-21T00:49:48.744Z,74071
2016-12-21T00:49:57.403Z,74069
2016-12-21T00:50:06.070Z,74066
2016-12-21T00:50:14.732Z,74068
2016-12-21T00:50:23.388Z,74069
2016-12-21T00:50:32.044Z,74069
2016-12-21T00:50:40.709Z,74071
2016-12-21T00:50:49.373Z,74072
2016-12-21T00:50:58.033Z,74070
2016-12-21T00:51:06.979Z,74070
2016-12-21T00:51:15.659Z,74069
2016-12-21T00:51:24.316Z,74070
2016-12-21T00:51:32.973Z,74073
2016-12-21T00:51:41.631Z,74071
2016-12-21T00:51:50.288Z,74076
2016-12-21T00:51:58.942Z,74068
2016-12-21T00:52:07.626Z,74072
2016-12-21T00:52:16.284Z,74069
2016-12-21T00:52:24.945Z,74073
2016-12-21T00:52:33.602Z,74071
2016-12-21T00:52:42.260Z,74074
2016-12-21T00:52:50.949Z,74071
2016-12-21T00:52:59.611Z,74074
2016-12-21T00:53:08.270Z,74074
2016-12-21T00:53:16.959Z,74071
2016-12-21T00:53:25.623Z,74071
2016-12-21T00:53:34.281Z,74071
2016-12-21T00:53:42.939Z,74077
2016-12-21T00:53:51.601Z,74073
2016-12-21T00:54:00.262Z,74074
2016-12-21T00:54:08.917Z,74075
2016-12-21T00:54:17.571Z,74076
2016-12-21T00:54:26.232Z,74075
2016-12-21T00:54:34.894Z,74077
2016-12-21T00:54:43.555Z,74077
2016-12-21T00:54:52.212Z,74075
2016-12-21T00:55:00.871Z,74078
2016-12-21T00:55:09.528Z,74076
2016-12-21T00:55:18.187Z,74073
2016-12-21T00:55:26.882Z,74076
2016-12-21T00:55:35.540Z,74080
2016-12-21T00:55:44.194Z,74077
2016-12-21T00:55:52.849Z,74076
2016-12-21T00:56:01.515Z,74077
2016-12-21T00:56:10.202Z,74078
2016-12-21T00:56:18.863Z,74078
2016-12-21T00:56:27.534Z,74075
2016-12-21T00:56:36.198Z,74078
2016-12-21T00:56:44.859Z,74076
2016-12-21T00:56:53.517Z,74077
2016-12-21T00:57:02.179Z,74074
2016-12-21T00:57:10.845Z,74076
2016-12-21T00:57:19.502Z,74077
2016-12-21T00:57:28.162Z,74082
2016-12-21T00:57:36.820Z,74077
2016-12-21T00:57:45.482Z,74079
2016-12-21T00:57:54.139Z,74081
2016-12-21T00:58:02.825Z,74077
2016-12-21T00:58:11.492Z,74080
2016-12-21T00:58:20.155Z,74084
2016-12-21T00:58:28.817Z,74082
2016-12-21T00:58:37.473Z,74081
2016-12-21T00:58:46.414Z,74080
2016-12-21T00:58:55.067Z,74078
2016-12-21T00:59:03.730Z,74075
2016-12-21T00:59:12.384Z,74080
2016-12-21T00:59:21.043Z,74079
2016-12-21T00:59:29.701Z,74078
2016-12-21T00:59:38.360Z,74080
2016-12-21T00:59:47.026Z,74078
2016-12-21T00:59:55.681Z,74077
2016-12-21T01:00:04.341Z,74080
2016-12-21T01:00:13.002Z,74075
2016-12-21T01:00:21.659Z,74080
2016-12-21T01:00:30.320Z,74078
2016-12-21T01:00:38.976Z,74075
2016-12-21T01:00:47.641Z,74080
2016-12-21T01:00:56.302Z,74076
2016-12-21T01:01:04.968Z,74080
2016-12-21T01:01:13.919Z,74075
2016-12-21T01:01:22.581Z,74080
2016-12-21T01:01:31.241Z,74080
2016-12-21T01:01:39.896Z,74085
2016-12-21T01:01:48.555Z,74080
2016-12-21T01:01:57.216Z,74080
2016-12-21T01:02:05.876Z,74079
2016-12-21T01:02:14.538Z,74079
2016-12-21T01:02:23.201Z,74084
2016-12-21T01:02:31.860Z,74083
2016-12-21T01:02:40.512Z,74083
2016-12-21T01:02:49.170Z,74083
2016-12-21T01:02:57.825Z,74083
2016-12-21T01:03:06.483Z,74082
2016-12-21T01:03:15.146Z,74080
2016-12-21T01:03:23.809Z,74079
2016-12-21T01:03:32.469Z,74082
2016-12-21T01:03:41.122Z,74083
2016-12-21T01:03:49.782Z,74085
2016-12-21T01:03:58.439Z,74081
2016-12-21T01:04:07.095Z,74083
2016-12-21T01:04:15.755Z,74081
2016-12-21T01:04:24.410Z,74085
2016-12-21T01:04:33.074Z,74079
2016-12-21T01:04:41.737Z,74079
2016-12-21T01:04:50.396Z,74078
2016-12-21T01:04:59.346Z,74083
2016-12-21T01:05:08.001Z,74082
2016-12-21T01:05:16.658Z,74082
2016-12-21T01:05:25.321Z,74079
2016-12-21T01:05:33.995Z,74078
2016-12-21T01:05:42.652Z,74082
2016-12-21T01:05:51.310Z,74081
2016-12-21T01:05:59.967Z,74081
2016-12-21T01:06:08.638Z,74077
2016-12-21T01:06:17.294Z,74080
2016-12-21T01:06:25.952Z,74083
2016-12-21T01:06:34.623Z,74078
2016-12-21T01:06:43.291Z,74080
2016-12-21T01:06:51.951Z,74081
2016-12-21T01:07:00.608Z,74084
2016-12-21T01:07:09.295Z,74080
2016-12-21T01:07:17.955Z,74082
2016-12-21T01:07:26.610Z,74080
2016-12-21T01:07:35.266Z,74084
2016-12-21T01:07:43.924Z,74081
2016-12-21T01:07:52.581Z,74083
2016-12-21T01:08:01.240Z,74083
2016-12-21T01:08:09.904Z,74082
2016-12-21T01:08:18.560Z,74079
2016-12-21T01:08:27.217Z,74080
2016-12-21T01:08:35.883Z,74083
2016-12-21T01:08:44.543Z,74088
2016-12-21T01:08:53.210Z,74084
2016-12-21T01:09:01.875Z,74079
2016-12-21T01:09:10.529Z,74081
2016-12-21T01:09:19.190Z,74079
2016-12-21T01:09:27.854Z,74082
2016-12-21T01:09:36.509Z,74078
2016-12-21T01:09:45.165Z,74077
2016-12-21T01:09:53.852Z,74080
2016-12-21T01:10:02.512Z,74080
2016-12-21T01:10:11.170Z,74078
2016-12-21T01:10:19.829Z,74079
2016-12-21T01:10:28.488Z,74082
2016-12-21T01:10:37.153Z,74079
2016-12-21T01:10:45.822Z,74082
2016-12-21T01:10:54.481Z,74079
2016-12-21T01:11:03.139Z,74085
2016-12-21T01:11:11.802Z,74082
2016-12-21T01:11:20.465Z,74080
2016-12-21T01:11:29.132Z,74081
2016-12-21T01:11:37.794Z,74079
2016-12-21T01:11:46.465Z,74080
2016-12-21T01:11:55.121Z,74082
2016-12-21T01:12:03.778Z,74081
2016-12-21T01:12:12.435Z,74080
2016-12-21T01:12:21.094Z,74085
2016-12-21T01:12:29.774Z,74088
2016-12-21T01:12:38.432Z,74084
2016-12-21T01:12:47.090Z,74084
2016-12-21T01:12:55.755Z,74079
2016-12-21T01:13:04.456Z,74086
2016-12-21T01:13:13.116Z,74084
2016-12-21T01:13:21.772Z,74079
2016-12-21T01:13:30.432Z,74081
2016-12-21T01:13:39.093Z,74084
2016-12-21T01:13:47.748Z,74080
2016-12-21T01:13:56.407Z,74079
2016-12-21T01:14:05.065Z,74082
2016-12-21T01:14:13.720Z,74085
2016-12-21T01:14:22.386Z,74083
2016-12-21T01:14:31.043Z,74083
2016-12-21T01:14:39.699Z,74085
2016-12-21T01:14:48.355Z,74081
2016-12-21T01:14:57.011Z,74081
2016-12-21T01:15:05.675Z,74082
2016-12-21T01:15:14.335Z,74080
2016-12-21T01:15:22.994Z,74081
2016-12-21T01:15:31.681Z,74081
2016-12-21T01:15:40.342Z,74081
2016-12-21T01:15:49.290Z,74085
2016-12-21T01:15:58.240Z,74083
2016-12-21T01:16:06.904Z,74086
2016-12-21T01:16:15.561Z,74082
2016-12-21T01:16:24.217Z,74083
2016-12-21T01:16:32.881Z,74081
2016-12-21T01:16:41.540Z,74084
2016-12-21T01:16:50.234Z,74082
2016-12-21T01:16:58.887Z,74083
2016-12-21T01:17:07.553Z,74083
2016-12-21T01:17:16.215Z,74082
2016-12-21T01:17:24.872Z,74083
2016-12-21T01:17:33.533Z,74083
2016-12-21T01:17:42.195Z,74082
2016-12-21T01:17:50.854Z,74083
2016-12-21T01:17:59.509Z,74084
2016-12-21T01:18:08.168Z,74083
2016-12-21T01:18:16.825Z,74081
2016-12-21T01:18:25.492Z,74084
2016-12-21T01:18:34.150Z,74087
2016-12-21T01:18:42.812Z,74086
2016-12-21T01:18:51.469Z,74085
2016-12-21T01:19:00.130Z,74085
2016-12-21T01:19:08.812Z,74082
2016-12-21T01:19:17.471Z,74086
2016-12-21T01:19:26.136Z,74084
2016-12-21T01:19:34.798Z,74089
2016-12-21T01:19:43.454Z,74090
2016-12-21T01:19:52.109Z,74090
2016-12-21T01:20:00.773Z,74088
2016-12-21T01:20:09.433Z,74089
2016-12-21T01:20:18.097Z,74088
2016-12-21T01:20:26.756Z,74083
2016-12-21T01:20:35.409Z,74089
2016-12-21T01:20:44.078Z,74084
2016-12-21T01:20:52.736Z,74090
2016-12-21T01:21:01.394Z,74088
2016-12-21T01:21:10.057Z,74087
2016-12-21T01:21:18.717Z,74092
2016-12-21T01:21:27.377Z,74089
2016-12-21T01:21:36.042Z,74089
2016-12-21T01:21:45.019Z,74094
2016-12-21T01:21:53.678Z,74086
2016-12-21T01:22:02.343Z,74094
2016-12-21T01:22:11.006Z,74085
2016-12-21T01:22:19.661Z,74089
2016-12-21T01:22:28.317Z,74091
2016-12-21T01:22:36.985Z,74092
2016-12-21T01:22:45.644Z,74089
2016-12-21T01:22:54.586Z,74091
2016-12-21T01:23:03.273Z,74094
2016-12-21T01:23:11.932Z,74090
2016-12-21T01:23:20.586Z,74096
2016-12-21T01:23:29.244Z,74094
2016-12-21T01:23:37.900Z,74094
2016-12-21T01:23:46.878Z,74094
2016-12-21T01:23:55.539Z,74094
2016-12-21T01:24:04.193Z,74095
2016-12-21T01:24:12.851Z,74095
2016-12-21T01:24:21.510Z,74094
2016-12-21T01:24:30.167Z,74091
2016-12-21T01:24:38.826Z,74093
2016-12-21T01:24:47.487Z,74090
2016-12-21T01:24:56.143Z,74093
2016-12-21T01:25:04.804Z,74092
2016-12-21T01:25:13.744Z,74094
2016-12-21T01:25:22.405Z,74095
2016-12-21T01:25:31.059Z,74091
2016-12-21T01:25:39.743Z,74090
2016-12-21T01:25:48.405Z,74094
2016-12-21T01:25:57.062Z,74096
2016-12-21T01:26:05.718Z,74100
2016-12-21T01:26:14.379Z,74097
2016-12-21T01:26:23.097Z,74098
2016-12-21T01:26:31.752Z,74099
2016-12-21T01:26:40.412Z,74097
2016-12-21T01:26:49.069Z,74102
2016-12-21T01:26:57.728Z,74102
2016-12-21T01:27:06.383Z,74100
2016-12-21T01:27:15.042Z,74099
2016-12-21T01:27:23.700Z,74097
2016-12-21T01:27:32.354Z,74094
2016-12-21T01:27:41.015Z,74102
2016-12-21T01:27:49.675Z,74096
2016-12-21T01:27:58.339Z,74102
2016-12-21T01:28:06.998Z,74097
2016-12-21T01:28:15.687Z,74098
2016-12-21T01:28:24.340Z,74103
2016-12-21T01:28:33.001Z,74104
2016-12-21T01:28:41.655Z,74101
2016-12-21T01:28:50.612Z,74101
2016-12-21T01:28:59.271Z,74101
2016-12-21T01:29:07.927Z,74102
2016-12-21T01:29:16.591Z,74100
2016-12-21T01:29:25.252Z,74101
2016-12-21T01:29:33.904Z,74101
2016-12-21T01:29:42.567Z,74102
2016-12-21T01:29:51.223Z,74105
2016-12-21T01:29:59.880Z,74103
2016-12-21T01:30:08.538Z,74100
2016-12-21T01:30:17.194Z,74100
2016-12-21T01:30:25.859Z,74099
2016-12-21T01:30:34.522Z,74105
2016-12-21T01:30:43.178Z,74102
2016-12-21T01:30:51.841Z,74101
2016-12-21T01:31:00.502Z,74104
2016-12-21T01:31:09.159Z,74102
2016-12-21T01:31:17.814Z,74104
2016-12-21T01:31:26.469Z,74103
2016-12-21T01:31:35.134Z,74105
2016-12-21T01:31:43.790Z,74106
2016-12-21T01:31:52.462Z,74102
2016-12-21T01:32:01.156Z,74104
2016-12-21T01:32:09.819Z,74104
2016-12-21T01:32:18.481Z,74106
2016-12-21T01:32:27.429Z,74107
2016-12-21T01:32:36.092Z,74111
2016-12-21T01:32:44.745Z,74106
2016-12-21T01:32:53.403Z,74107
2016-12-21T01:33:02.066Z,74105
2016-12-21T01:33:10.724Z,74099
2016-12-21T01:33:19.383Z,74102
2016-12-21T01:33:28.048Z,74106
2016-12-21T01:33:36.706Z,74103
2016-12-21T01:33:45.362Z,74101
2016-12-21T01:33:54.021Z,74101
2016-12-21T01:34:02.674Z,74104
2016-12-21T01:34:11.331Z,74102
2016-12-21T01:34:19.986Z,74099
2016-12-21T01:34:28.656Z,74104
2016-12-21T01:34:37.609Z,74105
2016-12-21T01:34:46.268Z,74098
2016-12-21T01:34:54.928Z,74098
2016-12-21T01:35:03.585Z,74101
2016-12-21T01:35:12.250Z,74098
2016-12-21T01:35:20.907Z,74102
2016-12-21T01:35:29.579Z,74099
2016-12-21T01:35:38.560Z,74101
2016-12-21T01:35:47.219Z,74101
2016-12-21T01:35:55.875Z,74099
2016-12-21T01:36:04.540Z,74098
2016-12-21T01:36:13.202Z,74099
2016-12-21T01:36:21.861Z,74100
2016-12-21T01:36:30.721Z,74100
2016-12-21T01:36:39.377Z,74099
2016-12-21T01:36:48.041Z,74102
2016-12-21T01:36:56.726Z,74097
2016-12-21T01:37:05.383Z,74099
2016-12-21T01:37:14.037Z,74102
2016-12-21T01:37:22.701Z,74102
2016-12-21T01:37:31.362Z,74100
2016-12-21T01:37:40.020Z,74100
2016-12-21T01:37:48.685Z,74101
2016-12-21T01:37:57.348Z,74101
2016-12-21T01:38:06.007Z,74095
2016-12-21T01:38:14.667Z,74102
2016-12-21T01:38:23.325Z,74103
2016-12-21T01:38:32.280Z,74103
2016-12-21T01:38:40.936Z,74102
2016-12-21T01:38:49.598Z,74100
2016-12-21T01:38:58.253Z,74098
2016-12-21T01:39:06.914Z,74100
2016-12-21T01:39:15.567Z,74101
2016-12-21T01:39:24.226Z,74099
2016-12-21T01:39:32.893Z,74104
2016-12-21T01:39:41.553Z,74099
2016-12-21T01:39:50.209Z,74100
2016-12-21T01:39:58.868Z,74101
2016-12-21T01:40:07.525Z,74101
2016-12-21T01:40:16.183Z,74102
2016-12-21T01:40:24.844Z,74100
2016-12-21T01:40:33.500Z,74097
2016-12-21T01:40:42.162Z,74100
2016-12-21T01:40:50.828Z,74100
2016-12-21T01:40:59.486Z,74101
2016-12-21T01:41:08.145Z,74098
2016-12-21T01:41:16.810Z,74100
2016-12-21T01:41:25.464Z,74100
2016-12-21T01:41:34.123Z,74095
2016-12-21T01:41:42.781Z,74102
2016-12-21T01:41:51.761Z,74102
2016-12-21T01:42:00.419Z,74103
2016-12-21T01:42:09.078Z,74102
2016-12-21T01:42:17.739Z,74101
2016-12-21T01:42:26.431Z,74099
2016-12-21T01:42:35.086Z,74105
2016-12-21T01:42:43.753Z,74100
2016-12-21T01:42:52.413Z,74103
2016-12-21T01:43:01.072Z,74107
2016-12-21T01:43:09.738Z,74108
2016-12-21T01:43:18.395Z,74101
2016-12-21T01:43:27.090Z,74104
2016-12-21T01:43:35.742Z,74105
2016-12-21T01:43:44.408Z,74105
2016-12-21T01:43:53.067Z,74103
2016-12-21T01:44:01.726Z,74106
2016-12-21T01:44:10.384Z,74108
2016-12-21T01:44:19.043Z,74100
2016-12-21T01:44:27.701Z,74101
2016-12-21T01:44:36.392Z,74103
2016-12-21T01:44:45.056Z,74106
2016-12-21T01:44:53.713Z,74102
2016-12-21T01:45:02.395Z,74107
2016-12-21T01:45:11.058Z,74104
2016-12-21T01:45:20.014Z,74102
2016-12-21T01:45:28.668Z,74104
2016-12-21T01:45:37.908Z,74100
2016-12-21T01:45:46.576Z,74102
2016-12-21T01:45:55.235Z,74100
2016-12-21T01:46:03.896Z,74105
2016-12-21T01:46:12.558Z,74104
2016-12-21T01:46:21.214Z,74100
2016-12-21T01:46:29.869Z,74103
2016-12-21T01:46:38.534Z,74104
2016-12-21T01:46:47.188Z,74100
2016-12-21T01:46:55.847Z,74106
2016-12-21T01:47:04.509Z,74102
2016-12-21T01:47:13.171Z,74102
2016-12-21T01:47:21.833Z,74099
2016-12-21T01:47:30.492Z,74101
2016-12-21T01:47:39.154Z,74101
2016-12-21T01:47:47.808Z,74103
2016-12-21T01:47:56.472Z,74104
2016-12-21T01:48:05.130Z,74106
2016-12-21T01:48:13.814Z,74103
2016-12-21T01:48:22.478Z,74105
2016-12-21T01:48:31.134Z,74102
2016-12-21T01:48:39.828Z,74105
2016-12-21T01:48:48.486Z,74103
2016-12-21T01:48:57.142Z,74106
2016-12-21T01:49:05.803Z,74106
2016-12-21T01:49:14.462Z,74104
2016-12-21T01:49:23.123Z,74103
2016-12-21T01:49:31.782Z,74102
2016-12-21T01:49:40.443Z,74103
2016-12-21T01:49:49.099Z,74105
2016-12-21T01:49:57.760Z,74104
2016-12-21T01:50:06.428Z,74101
2016-12-21T01:50:15.092Z,74101
2016-12-21T01:50:23.746Z,74101
2016-12-21T01:50:32.435Z,74104
2016-12-21T01:50:41.100Z,74102
2016-12-21T01:50:49.760Z,74099
2016-12-21T01:50:58.420Z,74103
2016-12-21T01:51:07.083Z,74104
2016-12-21T01:51:15.738Z,74103
2016-12-21T01:51:24.397Z,74102
2016-12-21T01:51:33.055Z,74104
2016-12-21T01:51:41.724Z,74100